createdAt,value
2018-06-23T00:04:04.890Z,95.60
2018-06-23T00:09:08.218Z,94.80
2018-06-23T00:14:11.506Z,93.60
2018-06-23T00:19:14.799Z,94.10
2018-06-23T00:24:18.054Z,94.60
2018-06-23T00:29:21.337Z,94.60
2018-06-23T00:34:24.628Z,94.80
2018-06-23T00:39:27.894Z,95.30
2018-06-23T00:44:31.198Z,95.10
2018-06-23T00:49:34.509Z,95.40
2018-06-23T00:54:37.814Z,95.60
2018-06-23T00:59:42.736Z,96.00
2018-06-23T01:04:46.038Z,96.10
2018-06-23T01:09:49.348Z,96.70
2018-06-23T01:14:52.661Z,97.80
2018-06-23T01:19:55.943Z,98.00
2018-06-23T01:24:59.223Z,98.60
2018-06-23T01:30:02.537Z,98.80
2018-06-23T01:35:05.836Z,99.20
2018-06-23T01:40:09.109Z,99.60
2018-06-23T01:50:15.411Z,99.30
2018-06-23T01:55:18.718Z,99.60
2018-06-23T02:00:21.990Z,99.40
2018-06-23T02:05:25.283Z,99.80
2018-06-23T02:10:28.533Z,99.90
2018-06-23T02:15:37.366Z,99.90
2018-06-23T02:25:54.404Z,99.90
2018-06-23T02:31:03.273Z,99.90
2018-06-23T02:36:06.605Z,99.90
2018-06-23T02:41:09.882Z,99.90
2018-06-23T02:46:13.231Z,99.90
2018-06-23T02:51:16.428Z,99.90
2018-06-23T02:56:20.010Z,99.90
2018-06-23T03:01:23.372Z,99.90
2018-06-23T03:06:26.680Z,99.90
2018-06-23T03:11:29.971Z,99.90
2018-06-23T03:16:33.256Z,99.90
2018-06-23T03:21:36.532Z,99.90
2018-06-23T03:41:49.371Z,99.90
2018-06-23T03:46:52.940Z,99.90
2018-06-23T03:56:59.547Z,99.90
2018-06-23T04:02:02.868Z,99.90
2018-06-23T04:07:06.135Z,99.90
2018-06-23T04:12:09.438Z,99.90
2018-06-23T04:22:15.763Z,99.90
2018-06-23T04:27:19.044Z,99.90
2018-06-23T04:37:25.287Z,99.90
2018-06-23T04:42:28.535Z,99.90
2018-06-23T04:47:31.797Z,99.90
2018-06-23T04:52:35.044Z,99.90
2018-06-23T04:57:38.346Z,99.90
2018-06-23T05:02:41.599Z,99.90
2018-06-23T05:07:44.853Z,99.90
2018-06-23T05:12:48.170Z,99.70
2018-06-23T05:17:51.430Z,99.60
2018-06-23T05:22:54.694Z,98.50
2018-06-23T05:27:57.971Z,98.20
2018-06-23T05:33:01.252Z,98.20
2018-06-23T05:38:04.529Z,97.90
2018-06-23T05:43:07.817Z,97.90
2018-06-23T05:48:11.655Z,97.20
2018-06-23T05:53:14.931Z,97.50
2018-06-23T05:58:18.235Z,96.50
2018-06-23T06:03:21.499Z,96.50
2018-06-23T06:08:24.746Z,95.60
2018-06-23T06:13:28.016Z,94.40
2018-06-23T06:18:31.289Z,94.10
2018-06-23T06:23:34.548Z,93.90
2018-06-23T06:28:37.833Z,94.20
2018-06-23T06:33:41.105Z,93.40
2018-06-23T06:38:44.384Z,92.30
2018-06-23T06:43:47.633Z,91.00
2018-06-23T06:48:50.910Z,90.40
2018-06-23T06:53:54.169Z,88.60
2018-06-23T06:58:57.451Z,87.30
2018-06-23T07:04:00.724Z,82.80
2018-06-23T07:09:05.722Z,84.60
2018-06-23T07:14:09.271Z,83.20
2018-06-23T07:19:12.558Z,82.10
2018-06-23T07:24:16.004Z,73.20
2018-06-23T07:29:19.135Z,77.60
2018-06-23T07:34:22.482Z,80.60
2018-06-23T07:39:25.777Z,83.10
2018-06-23T07:44:29.055Z,80.90
2018-06-23T07:49:32.320Z,80.80
2018-06-23T07:54:36.137Z,80.60
2018-06-23T07:59:39.395Z,81.20
2018-06-23T08:04:42.667Z,78.90
2018-06-23T08:09:45.942Z,78.10
2018-06-23T08:14:49.211Z,74.30
2018-06-23T08:19:52.521Z,74.60
2018-06-23T08:24:55.841Z,77.40
2018-06-23T08:29:59.123Z,77.90
2018-06-23T08:35:02.380Z,77.80
2018-06-23T08:40:05.635Z,76.00
2018-06-23T08:45:08.922Z,76.30
2018-06-23T08:50:12.213Z,76.00
2018-06-23T08:55:15.503Z,79.40
2018-06-23T09:00:18.772Z,71.80
2018-06-23T09:05:22.069Z,66.70
2018-06-23T09:10:25.343Z,67.60
2018-06-23T09:15:28.580Z,66.70
2018-06-23T09:20:31.834Z,68.10
2018-06-23T09:25:35.188Z,68.30
2018-06-23T09:30:38.388Z,64.40
2018-06-23T09:35:41.663Z,64.90
2018-06-23T09:40:44.930Z,66.30
2018-06-23T09:45:48.235Z,67.10
2018-06-23T09:55:54.636Z,64.00
2018-06-23T10:00:57.870Z,62.30
2018-06-23T10:06:01.147Z,62.50
2018-06-23T10:11:04.392Z,62.70
2018-06-23T10:16:07.682Z,61.30
2018-06-23T10:21:10.955Z,63.10
2018-06-23T10:26:14.230Z,63.40
2018-06-23T10:31:17.525Z,61.80
2018-06-23T10:36:20.793Z,58.90
2018-06-23T10:41:24.044Z,54.80
2018-06-23T10:46:27.341Z,52.30
2018-06-23T10:51:30.585Z,52.10
2018-06-23T10:56:33.867Z,53.40
2018-06-23T11:01:37.131Z,51.90
2018-06-23T11:06:40.412Z,54.00
2018-06-23T11:11:43.661Z,52.40
2018-06-23T11:16:46.899Z,53.70
2018-06-23T11:21:50.177Z,55.20
2018-06-23T11:26:53.442Z,55.80
2018-06-23T11:31:56.690Z,54.40
2018-06-23T11:36:59.975Z,53.70
2018-06-23T11:42:03.240Z,53.30
2018-06-23T11:52:09.627Z,55.80
2018-06-23T11:57:12.871Z,51.70
2018-06-23T12:02:16.174Z,50.50
2018-06-23T12:07:19.437Z,50.50
2018-06-23T12:12:22.727Z,48.80
2018-06-23T12:17:26.177Z,47.10
2018-06-23T12:22:29.470Z,47.80
2018-06-23T12:27:32.737Z,47.40
2018-06-23T12:37:39.002Z,45.80
2018-06-23T12:42:42.276Z,45.80
2018-06-23T12:47:45.549Z,45.70
2018-06-23T12:52:48.835Z,38.30
2018-06-23T12:57:52.096Z,38.00
2018-06-23T13:02:55.391Z,40.90
2018-06-23T13:07:58.718Z,39.70
2018-06-23T13:18:05.469Z,39.60
2018-06-23T13:23:08.812Z,36.00
2018-06-23T13:28:12.115Z,34.00
2018-06-23T13:33:15.402Z,37.40
2018-06-23T13:38:18.784Z,37.60
2018-06-23T13:43:22.038Z,37.60
2018-06-23T13:48:25.347Z,38.00
2018-06-23T13:53:28.625Z,38.90
2018-06-23T13:58:31.932Z,37.90
2018-06-23T14:08:38.559Z,44.70
2018-06-23T14:13:41.830Z,46.50
2018-06-23T14:18:45.112Z,46.50
2018-06-23T14:23:48.409Z,46.70
2018-06-23T14:28:51.714Z,45.70
2018-06-23T14:33:55.003Z,47.60
2018-06-23T14:38:58.295Z,47.50
2018-06-23T14:44:01.555Z,47.50
2018-06-23T14:49:04.886Z,48.70
2018-06-23T14:54:08.879Z,48.30
2018-06-23T14:59:12.187Z,47.60
2018-06-23T15:04:15.439Z,47.50
2018-06-23T15:09:30.257Z,47.40
2018-06-23T15:14:33.519Z,48.90
2018-06-23T15:19:36.773Z,50.10
2018-06-23T15:24:40.540Z,50.50
2018-06-23T15:29:43.851Z,50.00
2018-06-23T15:34:47.112Z,50.80
2018-06-23T15:39:50.410Z,50.70
2018-06-23T15:44:53.712Z,50.30
2018-06-23T15:49:56.983Z,50.70
2018-06-23T15:55:00.253Z,50.10
2018-06-23T16:00:03.539Z,50.30
2018-06-23T16:05:06.816Z,51.70
2018-06-23T16:10:15.630Z,53.30
2018-06-23T16:15:18.941Z,53.30
2018-06-23T16:20:22.237Z,53.50
2018-06-23T16:25:25.530Z,53.50
2018-06-23T16:30:28.812Z,54.30
2018-06-23T16:35:32.093Z,54.80
2018-06-23T16:40:35.463Z,56.10
2018-06-23T16:45:38.732Z,56.40
2018-06-23T16:50:42.014Z,57.00
2018-06-23T16:55:45.588Z,56.40
2018-06-23T17:00:48.949Z,57.40
2018-06-23T17:05:55.230Z,57.70
2018-06-23T17:10:58.570Z,58.00
2018-06-23T17:16:02.706Z,58.10
2018-06-23T17:21:06.064Z,58.40
2018-06-23T17:26:09.400Z,58.80
2018-06-23T17:31:12.744Z,58.90
2018-06-23T17:36:16.056Z,60.00
2018-06-23T17:41:19.328Z,59.90
2018-06-23T17:46:23.270Z,60.70
2018-06-23T17:51:26.594Z,61.80
2018-06-23T17:56:30.060Z,62.20
2018-06-23T18:01:33.450Z,62.60
2018-06-23T18:06:36.729Z,61.90
2018-06-23T18:11:40.240Z,61.00
2018-06-23T18:16:43.574Z,61.20
2018-06-23T18:21:46.843Z,61.20
2018-06-23T18:26:50.183Z,61.40
2018-06-23T18:31:53.791Z,62.60
2018-06-23T18:36:57.643Z,63.20
2018-06-23T18:42:00.918Z,63.90
2018-06-23T18:47:04.208Z,64.70
2018-06-23T18:52:07.494Z,64.90
2018-06-23T18:57:11.225Z,60.10
2018-06-23T19:02:14.514Z,62.50
2018-06-23T19:07:17.792Z,64.10
2018-06-23T19:12:21.063Z,64.60
2018-06-23T19:17:24.346Z,65.90
2018-06-23T19:22:27.629Z,67.10
2018-06-23T19:27:31.555Z,67.90
2018-06-23T19:32:35.390Z,68.40
2018-06-23T19:37:38.881Z,66.60
2018-06-23T19:42:42.200Z,65.10
2018-06-23T19:47:45.635Z,65.30
2018-06-23T19:52:50.077Z,65.80
2018-06-23T19:57:53.395Z,65.60
2018-06-23T20:02:57.366Z,66.30
2018-06-23T20:08:00.707Z,67.40
2018-06-23T20:13:04.119Z,68.30
2018-06-23T20:18:07.407Z,68.80
2018-06-23T20:23:10.684Z,69.10
2018-06-23T20:28:14.018Z,69.50
2018-06-23T20:33:17.404Z,69.80
2018-06-23T20:38:20.688Z,70.50
2018-06-23T20:43:23.970Z,70.50
2018-06-23T20:48:27.295Z,70.10
2018-06-23T20:53:30.579Z,69.90
2018-06-23T20:58:33.920Z,70.30
2018-06-23T21:03:37.200Z,69.90
2018-06-23T21:08:40.523Z,69.90
2018-06-23T21:13:43.857Z,70.40
2018-06-23T21:18:47.178Z,71.00
2018-06-23T21:23:50.456Z,71.10
2018-06-23T21:28:53.752Z,71.40
2018-06-23T21:33:57.098Z,71.00
2018-06-23T21:39:00.402Z,70.60
2018-06-23T21:49:06.832Z,71.90
2018-06-23T21:54:10.175Z,72.40
2018-06-23T21:59:13.522Z,72.40
2018-06-23T22:04:16.838Z,72.20
2018-06-23T22:09:20.203Z,72.50
2018-06-23T22:14:23.619Z,72.90
2018-06-23T22:19:26.924Z,73.50
2018-06-23T22:24:30.243Z,73.20
2018-06-23T22:29:33.585Z,72.90
2018-06-23T22:34:36.870Z,73.80
2018-06-23T22:39:40.227Z,74.50
2018-06-23T22:44:43.577Z,75.40
2018-06-23T22:49:46.882Z,76.80
2018-06-23T22:54:50.167Z,77.90
2018-06-23T22:59:53.432Z,78.30
2018-06-23T23:04:56.687Z,78.10
2018-06-23T23:09:59.952Z,79.60
2018-06-23T23:15:03.355Z,80.30
2018-06-23T23:20:06.767Z,81.10
2018-06-23T23:25:10.031Z,82.00
2018-06-23T23:30:13.284Z,82.70
2018-06-23T23:35:16.540Z,82.50
2018-06-23T23:40:19.826Z,83.00
2018-06-23T23:45:23.100Z,85.10
2018-06-23T23:50:26.359Z,86.00
2018-06-23T23:55:29.643Z,86.80
